Terminal Aerodrome Forecast
Issued by NWS

Home | Current Version | Previous Version | Text Only | Print | Product List | Glossary On
Versions: 1 2 3 4 5 6 7 8 9 10 11 12
000
FTUS46 KOTX 242320
TAFCOE
TAF
KCOE 242320Z 2500/2524 24005KT P6SM FEW060 SCT200
     FM250400 14004KT P6SM SCT150
     FM250800 12004KT P6SM FEW090 BKN120
     FM251700 18005KT P6SM SCT150
      AMD NOT SKED=

USA.gov is the U.S. government's official web portal to all federal, state and local government web resources and services.